sensor_id;sensor_type;location;lat;lon;timestamp;P1;durP1;ratioP1;P2;durP2;ratioP2
17670;SDS011;8954;48.694;8.940;2023-02-02T00:02:03;5.20;;;5.00;;
17670;SDS011;8954;48.694;8.940;2023-02-02T00:04:29;5.27;;;5.07;;
17670;SDS011;8954;48.694;8.940;2023-02-02T00:06:57;5.10;;;4.90;;
17670;SDS011;8954;48.694;8.940;2023-02-02T00:09:24;5.20;;;5.00;;
17670;SDS011;8954;48.694;8.940;2023-02-02T00:11:53;5.20;;;5.00;;
17670;SDS011;8954;48.694;8.940;2023-02-02T00:14:19;5.20;;;5.00;;
17670;SDS011;8954;48.694;8.940;2023-02-02T00:16:45;5.30;;;5.10;;
17670;SDS011;8954;48.694;8.940;2023-02-02T00:19:14;4.90;;;4.70;;
17670;SDS011;8954;48.694;8.940;2023-02-02T00:21:41;5.50;;;5.20;;
17670;SDS011;8954;48.694;8.940;2023-02-02T00:24:08;5.20;;;5.00;;
17670;SDS011;8954;48.694;8.940;2023-02-02T00:26:35;5.40;;;5.20;;
17670;SDS011;8954;48.694;8.940;2023-02-02T00:29:02;5.30;;;5.10;;
17670;SDS011;8954;48.694;8.940;2023-02-02T00:31:29;5.30;;;5.10;;
17670;SDS011;8954;48.694;8.940;2023-02-02T00:33:54;5.10;;;4.90;;
17670;SDS011;8954;48.694;8.940;2023-02-02T00:36:20;5.30;;;5.10;;
17670;SDS011;8954;48.694;8.940;2023-02-02T00:38:46;5.47;;;5.27;;
17670;SDS011;8954;48.694;8.940;2023-02-02T00:41:12;5.30;;;5.10;;
17670;SDS011;8954;48.694;8.940;2023-02-02T00:43:38;5.20;;;5.00;;
17670;SDS011;8954;48.694;8.940;2023-02-02T00:46:04;5.10;;;4.90;;
17670;SDS011;8954;48.694;8.940;2023-02-02T00:48:30;5.40;;;5.20;;
17670;SDS011;8954;48.694;8.940;2023-02-02T00:50:56;5.30;;;5.10;;
17670;SDS011;8954;48.694;8.940;2023-02-02T00:53:21;5.53;;;5.33;;
17670;SDS011;8954;48.694;8.940;2023-02-02T00:55:47;5.40;;;5.20;;
17670;SDS011;8954;48.694;8.940;2023-02-02T00:58:13;5.30;;;5.10;;
17670;SDS011;8954;48.694;8.940;2023-02-02T01:00:38;5.33;;;5.13;;
17670;SDS011;8954;48.694;8.940;2023-02-02T01:03:04;5.40;;;5.20;;
17670;SDS011;8954;48.694;8.940;2023-02-02T01:05:31;5.20;;;5.00;;
17670;SDS011;8954;48.694;8.940;2023-02-02T01:08:00;5.30;;;5.10;;
17670;SDS011;8954;48.694;8.940;2023-02-02T01:10:26;5.40;;;5.20;;
17670;SDS011;8954;48.694;8.940;2023-02-02T01:12:51;5.30;;;5.10;;
17670;SDS011;8954;48.694;8.940;2023-02-02T01:15:17;5.50;;;5.30;;
17670;SDS011;8954;48.694;8.940;2023-02-02T01:17:43;5.50;;;5.30;;
17670;SDS011;8954;48.694;8.940;2023-02-02T01:20:16;5.63;;;5.43;;
17670;SDS011;8954;48.694;8.940;2023-02-02T01:22:43;5.20;;;5.00;;
17670;SDS011;8954;48.694;8.940;2023-02-02T01:25:09;5.60;;;5.40;;
17670;SDS011;8954;48.694;8.940;2023-02-02T01:27:35;5.60;;;5.40;;
17670;SDS011;8954;48.694;8.940;2023-02-02T01:30:00;5.50;;;5.30;;
17670;SDS011;8954;48.694;8.940;2023-02-02T01:32:26;5.60;;;5.40;;
17670;SDS011;8954;48.694;8.940;2023-02-02T01:34:51;5.40;;;5.20;;
17670;SDS011;8954;48.694;8.940;2023-02-02T01:37:17;5.23;;;5.03;;
17670;SDS011;8954;48.694;8.940;2023-02-02T01:39:42;5.40;;;5.20;;
17670;SDS011;8954;48.694;8.940;2023-02-02T01:42:12;5.40;;;5.20;;
17670;SDS011;8954;48.694;8.940;2023-02-02T01:47:39;5.40;;;5.20;;
17670;SDS011;8954;48.694;8.940;2023-02-02T01:50:17;5.20;;;5.00;;
17670;SDS011;8954;48.694;8.940;2023-02-02T01:52:46;5.30;;;5.10;;
17670;SDS011;8954;48.694;8.940;2023-02-02T01:55:14;5.37;;;5.17;;
17670;SDS011;8954;48.694;8.940;2023-02-02T01:57:44;5.30;;;5.10;;
17670;SDS011;8954;48.694;8.940;2023-02-02T02:00:15;5.40;;;5.20;;
17670;SDS011;8954;48.694;8.940;2023-02-02T02:02:44;5.40;;;5.20;;
17670;SDS011;8954;48.694;8.940;2023-02-02T02:05:12;5.40;;;5.20;;
17670;SDS011;8954;48.694;8.940;2023-02-02T02:07:42;5.70;;;5.50;;
17670;SDS011;8954;48.694;8.940;2023-02-02T02:10:09;5.63;;;5.43;;
17670;SDS011;8954;48.694;8.940;2023-02-02T02:12:35;5.57;;;5.37;;
17670;SDS011;8954;48.694;8.940;2023-02-02T02:15:00;5.70;;;5.50;;
17670;SDS011;8954;48.694;8.940;2023-02-02T02:17:50;5.60;;;5.40;;
17670;SDS011;8954;48.694;8.940;2023-02-02T02:20:31;5.70;;;5.50;;
17670;SDS011;8954;48.694;8.940;2023-02-02T02:35:02;5.70;;;5.50;;
17670;SDS011;8954;48.694;8.940;2023-02-02T02:37:47;5.60;;;5.40;;
17670;SDS011;8954;48.694;8.940;2023-02-02T02:40:45;5.80;;;5.60;;
17670;SDS011;8954;48.694;8.940;2023-02-02T02:43:17;5.70;;;5.50;;
17670;SDS011;8954;48.694;8.940;2023-02-02T02:45:47;5.70;;;5.50;;
17670;SDS011;8954;48.694;8.940;2023-02-02T02:48:13;5.50;;;5.30;;
17670;SDS011;8954;48.694;8.940;2023-02-02T02:50:39;5.70;;;5.50;;
17670;SDS011;8954;48.694;8.940;2023-02-02T02:53:05;5.50;;;5.30;;
17670;SDS011;8954;48.694;8.940;2023-02-02T02:55:38;5.70;;;5.50;;
17670;SDS011;8954;48.694;8.940;2023-02-02T03:01:26;5.40;;;5.20;;
17670;SDS011;8954;48.694;8.940;2023-02-02T03:04:01;5.70;;;5.50;;
17670;SDS011;8954;48.694;8.940;2023-02-02T03:06:41;5.60;;;5.40;;
17670;SDS011;8954;48.694;8.940;2023-02-02T03:09:17;5.70;;;5.50;;
17670;SDS011;8954;48.694;8.940;2023-02-02T03:11:46;5.40;;;5.20;;
17670;SDS011;8954;48.694;8.940;2023-02-02T03:14:11;5.50;;;5.30;;
17670;SDS011;8954;48.694;8.940;2023-02-02T03:16:37;5.60;;;5.40;;
17670;SDS011;8954;48.694;8.940;2023-02-02T03:19:03;5.37;;;5.17;;
17670;SDS011;8954;48.694;8.940;2023-02-02T03:21:31;5.50;;;5.30;;
17670;SDS011;8954;48.694;8.940;2023-02-02T03:23:57;5.60;;;5.40;;
17670;SDS011;8954;48.694;8.940;2023-02-02T03:26:23;5.60;;;5.40;;
17670;SDS011;8954;48.694;8.940;2023-02-02T03:28:49;5.60;;;5.40;;
17670;SDS011;8954;48.694;8.940;2023-02-02T03:31:16;5.70;;;5.50;;
17670;SDS011;8954;48.694;8.940;2023-02-02T03:33:42;5.50;;;5.30;;
17670;SDS011;8954;48.694;8.940;2023-02-02T03:36:08;5.50;;;5.30;;
17670;SDS011;8954;48.694;8.940;2023-02-02T03:38:34;5.60;;;5.40;;
17670;SDS011;8954;48.694;8.940;2023-02-02T03:40:59;5.90;;;5.70;;
17670;SDS011;8954;48.694;8.940;2023-02-02T03:43:25;5.70;;;5.50;;
17670;SDS011;8954;48.694;8.940;2023-02-02T03:45:54;5.70;;;5.50;;
17670;SDS011;8954;48.694;8.940;2023-02-02T03:48:20;5.60;;;5.40;;
17670;SDS011;8954;48.694;8.940;2023-02-02T03:50:46;5.60;;;5.40;;
17670;SDS011;8954;48.694;8.940;2023-02-02T03:53:12;5.50;;;5.30;;
17670;SDS011;8954;48.694;8.940;2023-02-02T03:55:37;5.40;;;5.20;;
17670;SDS011;8954;48.694;8.940;2023-02-02T03:58:04;5.60;;;5.40;;
17670;SDS011;8954;48.694;8.940;2023-02-02T04:00:30;5.60;;;5.40;;
17670;SDS011;8954;48.694;8.940;2023-02-02T04:02:55;5.60;;;5.40;;
17670;SDS011;8954;48.694;8.940;2023-02-02T04:05:21;5.60;;;5.40;;
17670;SDS011;8954;48.694;8.940;2023-02-02T04:07:46;5.30;;;5.10;;
17670;SDS011;8954;48.694;8.940;2023-02-02T04:10:13;5.50;;;5.30;;
17670;SDS011;8954;48.694;8.940;2023-02-02T04:12:38;5.40;;;5.20;;
17670;SDS011;8954;48.694;8.940;2023-02-02T04:15:04;5.50;;;5.30;;
17670;SDS011;8954;48.694;8.940;2023-02-02T04:17:30;5.40;;;5.20;;
17670;SDS011;8954;48.694;8.940;2023-02-02T04:19:56;5.40;;;5.20;;
17670;SDS011;8954;48.694;8.940;2023-02-02T04:22:23;5.30;;;5.10;;
17670;SDS011;8954;48.694;8.940;2023-02-02T04:24:49;5.30;;;5.10;;
17670;SDS011;8954;48.694;8.940;2023-02-02T04:27:14;5.40;;;5.20;;
17670;SDS011;8954;48.694;8.940;2023-02-02T04:29:40;5.33;;;5.13;;
17670;SDS011;8954;48.694;8.940;2023-02-02T04:32:05;5.50;;;5.30;;
17670;SDS011;8954;48.694;8.940;2023-02-02T04:34:31;5.60;;;5.40;;
17670;SDS011;8954;48.694;8.940;2023-02-02T04:36:56;5.80;;;5.60;;
17670;SDS011;8954;48.694;8.940;2023-02-02T04:39:22;5.50;;;5.30;;
17670;SDS011;8954;48.694;8.940;2023-02-02T04:41:48;5.60;;;5.40;;
17670;SDS011;8954;48.694;8.940;2023-02-02T04:44:14;5.33;;;5.13;;
17670;SDS011;8954;48.694;8.940;2023-02-02T04:46:40;5.20;;;5.00;;
17670;SDS011;8954;48.694;8.940;2023-02-02T04:49:07;5.17;;;5.00;;
17670;SDS011;8954;48.694;8.940;2023-02-02T04:51:34;5.10;;;4.90;;
17670;SDS011;8954;48.694;8.940;2023-02-02T04:54:00;5.50;;;5.30;;
17670;SDS011;8954;48.694;8.940;2023-02-02T04:56:25;5.30;;;5.10;;
17670;SDS011;8954;48.694;8.940;2023-02-02T04:58:53;5.00;;;4.90;;
17670;SDS011;8954;48.694;8.940;2023-02-02T05:01:19;4.90;;;4.80;;
17670;SDS011;8954;48.694;8.940;2023-02-02T05:03:46;5.30;;;5.10;;
17670;SDS011;8954;48.694;8.940;2023-02-02T05:06:13;5.50;;;5.30;;
17670;SDS011;8954;48.694;8.940;2023-02-02T05:08:39;5.50;;;5.30;;
17670;SDS011;8954;48.694;8.940;2023-02-02T05:11:11;5.70;;;5.50;;
17670;SDS011;8954;48.694;8.940;2023-02-02T05:13:38;5.70;;;5.50;;
17670;SDS011;8954;48.694;8.940;2023-02-02T05:16:05;5.47;;;5.27;;
17670;SDS011;8954;48.694;8.940;2023-02-02T05:18:31;5.30;;;5.10;;
17670;SDS011;8954;48.694;8.940;2023-02-02T05:21:00;5.60;;;5.40;;
17670;SDS011;8954;48.694;8.940;2023-02-02T05:23:27;5.50;;;5.30;;
17670;SDS011;8954;48.694;8.940;2023-02-02T05:25:53;5.60;;;5.40;;
17670;SDS011;8954;48.694;8.940;2023-02-02T05:28:19;5.40;;;5.20;;
17670;SDS011;8954;48.694;8.940;2023-02-02T05:30:45;5.30;;;5.10;;
17670;SDS011;8954;48.694;8.940;2023-02-02T05:33:11;5.50;;;5.30;;
17670;SDS011;8954;48.694;8.940;2023-02-02T05:35:37;5.40;;;5.20;;
17670;SDS011;8954;48.694;8.940;2023-02-02T05:38:02;5.40;;;5.20;;
17670;SDS011;8954;48.694;8.940;2023-02-02T05:40:28;5.30;;;5.10;;
17670;SDS011;8954;48.694;8.940;2023-02-02T05:42:54;5.10;;;5.00;;
17670;SDS011;8954;48.694;8.940;2023-02-02T05:45:19;5.37;;;5.17;;
17670;SDS011;8954;48.694;8.940;2023-02-02T05:47:45;5.20;;;5.00;;
17670;SDS011;8954;48.694;8.940;2023-02-02T05:50:11;5.40;;;5.20;;
17670;SDS011;8954;48.694;8.940;2023-02-02T05:52:36;5.30;;;5.10;;
17670;SDS011;8954;48.694;8.940;2023-02-02T05:55:04;5.37;;;5.17;;
17670;SDS011;8954;48.694;8.940;2023-02-02T05:57:30;5.53;;;5.33;;
17670;SDS011;8954;48.694;8.940;2023-02-02T05:59:55;5.40;;;5.20;;
17670;SDS011;8954;48.694;8.940;2023-02-02T06:02:21;5.40;;;5.20;;
17670;SDS011;8954;48.694;8.940;2023-02-02T06:04:50;5.40;;;5.20;;
17670;SDS011;8954;48.694;8.940;2023-02-02T06:07:15;5.40;;;5.20;;
17670;SDS011;8954;48.694;8.940;2023-02-02T06:09:41;5.63;;;5.43;;
17670;SDS011;8954;48.694;8.940;2023-02-02T06:12:06;5.50;;;5.30;;
17670;SDS011;8954;48.694;8.940;2023-02-02T06:14:32;5.47;;;5.27;;
17670;SDS011;8954;48.694;8.940;2023-02-02T06:16:58;5.60;;;5.40;;
17670;SDS011;8954;48.694;8.940;2023-02-02T06:19:23;5.50;;;5.30;;
17670;SDS011;8954;48.694;8.940;2023-02-02T06:21:49;5.90;;;5.70;;
17670;SDS011;8954;48.694;8.940;2023-02-02T06:24:14;5.70;;;5.50;;
17670;SDS011;8954;48.694;8.940;2023-02-02T06:26:40;5.60;;;5.40;;
17670;SDS011;8954;48.694;8.940;2023-02-02T06:29:06;5.70;;;5.50;;
17670;SDS011;8954;48.694;8.940;2023-02-02T06:31:31;5.60;;;5.40;;
17670;SDS011;8954;48.694;8.940;2023-02-02T06:33:58;6.10;;;5.90;;
17670;SDS011;8954;48.694;8.940;2023-02-02T06:36:24;5.80;;;5.60;;
17670;SDS011;8954;48.694;8.940;2023-02-02T06:38:51;6.20;;;6.00;;
17670;SDS011;8954;48.694;8.940;2023-02-02T06:41:18;6.60;;;6.40;;
17670;SDS011;8954;48.694;8.940;2023-02-02T06:43:44;6.20;;;6.00;;
17670;SDS011;8954;48.694;8.940;2023-02-02T06:46:10;6.20;;;6.00;;
17670;SDS011;8954;48.694;8.940;2023-02-02T06:48:36;6.50;;;6.30;;
17670;SDS011;8954;48.694;8.940;2023-02-02T06:51:01;6.30;;;6.10;;
17670;SDS011;8954;48.694;8.940;2023-02-02T06:53:29;6.70;;;6.50;;
17670;SDS011;8954;48.694;8.940;2023-02-02T06:55:56;6.40;;;6.20;;
17670;SDS011;8954;48.694;8.940;2023-02-02T06:58:23;6.90;;;6.70;;
17670;SDS011;8954;48.694;8.940;2023-02-02T07:00:49;6.60;;;6.40;;
17670;SDS011;8954;48.694;8.940;2023-02-02T07:03:15;6.70;;;6.50;;
17670;SDS011;8954;48.694;8.940;2023-02-02T07:05:40;6.90;;;6.70;;
17670;SDS011;8954;48.694;8.940;2023-02-02T07:08:06;6.60;;;6.40;;
17670;SDS011;8954;48.694;8.940;2023-02-02T07:10:32;6.90;;;6.70;;
17670;SDS011;8954;48.694;8.940;2023-02-02T07:12:57;6.80;;;6.60;;
17670;SDS011;8954;48.694;8.940;2023-02-02T07:15:23;6.70;;;6.50;;
17670;SDS011;8954;48.694;8.940;2023-02-02T07:17:48;7.10;;;6.90;;
17670;SDS011;8954;48.694;8.940;2023-02-02T07:20:14;6.83;;;6.63;;
17670;SDS011;8954;48.694;8.940;2023-02-02T07:22:40;7.00;;;6.80;;
17670;SDS011;8954;48.694;8.940;2023-02-02T07:25:06;6.70;;;6.50;;
17670;SDS011;8954;48.694;8.940;2023-02-02T07:27:32;7.10;;;6.90;;
17670;SDS011;8954;48.694;8.940;2023-02-02T07:29:58;7.00;;;6.80;;
17670;SDS011;8954;48.694;8.940;2023-02-02T07:32:24;7.37;;;7.17;;
17670;SDS011;8954;48.694;8.940;2023-02-02T07:34:49;7.10;;;6.90;;
17670;SDS011;8954;48.694;8.940;2023-02-02T07:37:15;6.80;;;6.60;;
17670;SDS011;8954;48.694;8.940;2023-02-02T07:39:40;6.90;;;6.70;;
17670;SDS011;8954;48.694;8.940;2023-02-02T07:42:09;6.77;;;6.57;;
17670;SDS011;8954;48.694;8.940;2023-02-02T07:44:35;6.77;;;6.57;;
17670;SDS011;8954;48.694;8.940;2023-02-02T07:47:01;7.30;;;7.10;;
17670;SDS011;8954;48.694;8.940;2023-02-02T07:49:27;6.73;;;6.53;;
17670;SDS011;8954;48.694;8.940;2023-02-02T07:51:52;6.90;;;6.70;;
17670;SDS011;8954;48.694;8.940;2023-02-02T07:54:18;7.37;;;7.17;;
17670;SDS011;8954;48.694;8.940;2023-02-02T07:56:44;6.70;;;6.50;;
17670;SDS011;8954;48.694;8.940;2023-02-02T07:59:10;7.00;;;6.80;;
17670;SDS011;8954;48.694;8.940;2023-02-02T08:01:35;6.80;;;6.60;;
17670;SDS011;8954;48.694;8.940;2023-02-02T08:04:01;6.70;;;6.50;;
17670;SDS011;8954;48.694;8.940;2023-02-02T08:06:31;6.70;;;6.50;;
17670;SDS011;8954;48.694;8.940;2023-02-02T08:08:59;6.77;;;6.57;;
17670;SDS011;8954;48.694;8.940;2023-02-02T08:11:25;6.50;;;6.30;;
17670;SDS011;8954;48.694;8.940;2023-02-02T08:13:53;6.30;;;6.10;;
17670;SDS011;8954;48.694;8.940;2023-02-02T08:16:21;6.43;;;6.23;;
17670;SDS011;8954;48.694;8.940;2023-02-02T08:18:47;6.57;;;6.38;;
17670;SDS011;8954;48.694;8.940;2023-02-02T08:21:13;6.13;;;5.93;;
17670;SDS011;8954;48.694;8.940;2023-02-02T08:23:40;6.13;;;5.93;;
17670;SDS011;8954;48.694;8.940;2023-02-02T08:26:07;6.30;;;6.10;;
17670;SDS011;8954;48.694;8.940;2023-02-02T08:28:34;6.23;;;6.03;;
17670;SDS011;8954;48.694;8.940;2023-02-02T08:31:06;6.40;;;6.20;;
17670;SDS011;8954;48.694;8.940;2023-02-02T08:33:40;6.40;;;6.20;;
17670;SDS011;8954;48.694;8.940;2023-02-02T08:36:16;6.38;;;6.18;;
17670;SDS011;8954;48.694;8.940;2023-02-02T08:38:43;6.00;;;5.80;;
17670;SDS011;8954;48.694;8.940;2023-02-02T08:41:09;5.80;;;5.60;;
17670;SDS011;8954;48.694;8.940;2023-02-02T08:43:37;6.17;;;5.97;;
17670;SDS011;8954;48.694;8.940;2023-02-02T08:46:04;6.40;;;6.20;;
17670;SDS011;8954;48.694;8.940;2023-02-02T08:48:30;6.00;;;5.80;;
17670;SDS011;8954;48.694;8.940;2023-02-02T08:50:56;6.50;;;6.30;;
17670;SDS011;8954;48.694;8.940;2023-02-02T08:53:23;6.37;;;6.17;;
17670;SDS011;8954;48.694;8.940;2023-02-02T08:55:59;6.27;;;6.07;;
17670;SDS011;8954;48.694;8.940;2023-02-02T08:58:30;6.37;;;6.17;;
17670;SDS011;8954;48.694;8.940;2023-02-02T09:01:11;6.00;;;5.80;;
17670;SDS011;8954;48.694;8.940;2023-02-02T09:03:39;6.40;;;6.20;;
17670;SDS011;8954;48.694;8.940;2023-02-02T09:06:06;6.50;;;6.30;;
17670;SDS011;8954;48.694;8.940;2023-02-02T09:08:34;6.20;;;6.00;;
17670;SDS011;8954;48.694;8.940;2023-02-02T09:11:07;6.30;;;6.10;;
17670;SDS011;8954;48.694;8.940;2023-02-02T09:13:34;6.28;;;6.07;;
17670;SDS011;8954;48.694;8.940;2023-02-02T09:16:01;5.80;;;5.60;;
17670;SDS011;8954;48.694;8.940;2023-02-02T09:18:27;6.30;;;6.10;;
17670;SDS011;8954;48.694;8.940;2023-02-02T09:20:53;5.80;;;5.60;;
17670;SDS011;8954;48.694;8.940;2023-02-02T09:23:19;5.90;;;5.70;;
17670;SDS011;8954;48.694;8.940;2023-02-02T09:25:45;6.00;;;5.80;;
17670;SDS011;8954;48.694;8.940;2023-02-02T09:28:11;6.20;;;6.00;;
17670;SDS011;8954;48.694;8.940;2023-02-02T09:30:36;6.00;;;5.80;;
17670;SDS011;8954;48.694;8.940;2023-02-02T09:33:02;6.00;;;5.80;;
17670;SDS011;8954;48.694;8.940;2023-02-02T09:35:28;6.10;;;5.90;;
17670;SDS011;8954;48.694;8.940;2023-02-02T09:37:54;6.00;;;5.80;;
17670;SDS011;8954;48.694;8.940;2023-02-02T09:40:19;6.03;;;5.83;;
17670;SDS011;8954;48.694;8.940;2023-02-02T09:43:23;6.00;;;5.80;;
17670;SDS011;8954;48.694;8.940;2023-02-02T09:45:54;6.00;;;5.80;;
17670;SDS011;8954;48.694;8.940;2023-02-02T09:48:27;5.90;;;5.70;;
17670;SDS011;8954;48.694;8.940;2023-02-02T09:51:04;6.10;;;5.90;;
17670;SDS011;8954;48.694;8.940;2023-02-02T09:53:39;6.20;;;6.00;;
17670;SDS011;8954;48.694;8.940;2023-02-02T09:56:23;6.20;;;6.00;;
17670;SDS011;8954;48.694;8.940;2023-02-02T09:58:53;6.10;;;5.90;;
17670;SDS011;8954;48.694;8.940;2023-02-02T10:01:21;5.90;;;5.70;;
17670;SDS011;8954;48.694;8.940;2023-02-02T10:08:54;5.90;;;5.70;;
17670;SDS011;8954;48.694;8.940;2023-02-02T10:14:01;6.13;;;5.93;;
17670;SDS011;8954;48.694;8.940;2023-02-02T10:16:52;6.00;;;5.80;;
17670;SDS011;8954;48.694;8.940;2023-02-02T10:19:20;5.93;;;5.72;;
17670;SDS011;8954;48.694;8.940;2023-02-02T10:21:54;6.20;;;6.00;;
17670;SDS011;8954;48.694;8.940;2023-02-02T10:24:30;6.20;;;6.00;;
17670;SDS011;8954;48.694;8.940;2023-02-02T10:26:57;6.33;;;6.13;;
17670;SDS011;8954;48.694;8.940;2023-02-02T10:32:24;6.50;;;6.30;;
17670;SDS011;8954;48.694;8.940;2023-02-02T10:45:50;6.80;;;6.60;;
17670;SDS011;8954;48.694;8.940;2023-02-02T10:48:21;6.20;;;6.00;;
17670;SDS011;8954;48.694;8.940;2023-02-02T10:50:53;6.13;;;5.93;;
17670;SDS011;8954;48.694;8.940;2023-02-02T10:53:21;6.40;;;6.20;;
17670;SDS011;8954;48.694;8.940;2023-02-02T10:55:55;6.40;;;6.20;;
17670;SDS011;8954;48.694;8.940;2023-02-02T10:58:54;6.20;;;6.00;;
17670;SDS011;8954;48.694;8.940;2023-02-02T11:01:25;6.50;;;6.30;;
17670;SDS011;8954;48.694;8.940;2023-02-02T11:03:56;6.50;;;6.30;;
17670;SDS011;8954;48.694;8.940;2023-02-02T11:06:40;6.40;;;6.20;;
17670;SDS011;8954;48.694;8.940;2023-02-02T11:09:18;6.23;;;6.03;;
17670;SDS011;8954;48.694;8.940;2023-02-02T11:11:56;6.43;;;6.23;;
17670;SDS011;8954;48.694;8.940;2023-02-02T11:14:39;6.40;;;6.20;;
17670;SDS011;8954;48.694;8.940;2023-02-02T11:17:21;6.20;;;6.00;;
17670;SDS011;8954;48.694;8.940;2023-02-02T11:19:48;6.30;;;6.10;;
17670;SDS011;8954;48.694;8.940;2023-02-02T11:22:25;6.00;;;5.80;;
17670;SDS011;8954;48.694;8.940;2023-02-02T11:25:02;6.20;;;6.00;;
17670;SDS011;8954;48.694;8.940;2023-02-02T11:27:39;6.20;;;6.00;;
17670;SDS011;8954;48.694;8.940;2023-02-02T11:32:51;6.20;;;6.00;;
17670;SDS011;8954;48.694;8.940;2023-02-02T11:35:18;6.20;;;6.00;;
17670;SDS011;8954;48.694;8.940;2023-02-02T11:42:56;6.23;;;6.03;;
17670;SDS011;8954;48.694;8.940;2023-02-02T11:50:37;7.00;;;6.80;;
17670;SDS011;8954;48.694;8.940;2023-02-02T11:53:02;6.80;;;6.60;;
17670;SDS011;8954;48.694;8.940;2023-02-02T11:55:28;6.80;;;6.60;;
17670;SDS011;8954;48.694;8.940;2023-02-02T12:01:05;7.23;;;7.03;;
17670;SDS011;8954;48.694;8.940;2023-02-02T12:03:35;7.40;;;7.20;;
17670;SDS011;8954;48.694;8.940;2023-02-02T12:06:18;7.20;;;7.00;;
17670;SDS011;8954;48.694;8.940;2023-02-02T12:08:45;7.40;;;7.20;;
17670;SDS011;8954;48.694;8.940;2023-02-02T12:11:23;7.30;;;7.10;;
17670;SDS011;8954;48.694;8.940;2023-02-02T12:13:59;7.30;;;7.10;;
17670;SDS011;8954;48.694;8.940;2023-02-02T12:16:38;7.20;;;7.00;;
17670;SDS011;8954;48.694;8.940;2023-02-02T12:19:24;7.27;;;7.07;;
17670;SDS011;8954;48.694;8.940;2023-02-02T12:22:16;7.22;;;7.03;;
17670;SDS011;8954;48.694;8.940;2023-02-02T12:25:05;7.20;;;7.00;;
17670;SDS011;8954;48.694;8.940;2023-02-02T12:30:40;7.40;;;7.20;;
17670;SDS011;8954;48.694;8.940;2023-02-02T12:33:38;7.30;;;7.10;;
17670;SDS011;8954;48.694;8.940;2023-02-02T12:55:40;7.90;;;7.60;;
17670;SDS011;8954;48.694;8.940;2023-02-02T13:01:01;7.00;;;6.80;;
17670;SDS011;8954;48.694;8.940;2023-02-02T13:12:04;7.10;;;6.90;;
17670;SDS011;8954;48.694;8.940;2023-02-02T13:14:34;7.20;;;7.00;;
17670;SDS011;8954;48.694;8.940;2023-02-02T13:20:01;7.00;;;6.80;;
17670;SDS011;8954;48.694;8.940;2023-02-02T13:22:33;7.20;;;7.00;;
17670;SDS011;8954;48.694;8.940;2023-02-02T13:25:02;7.37;;;7.17;;
17670;SDS011;8954;48.694;8.940;2023-02-02T13:27:32;7.10;;;6.90;;
17670;SDS011;8954;48.694;8.940;2023-02-02T13:30:02;7.10;;;6.90;;
17670;SDS011;8954;48.694;8.940;2023-02-02T13:32:35;6.87;;;6.67;;
17670;SDS011;8954;48.694;8.940;2023-02-02T13:35:05;7.10;;;6.90;;
17670;SDS011;8954;48.694;8.940;2023-02-02T13:37:41;7.40;;;7.20;;
17670;SDS011;8954;48.694;8.940;2023-02-02T13:46:22;6.90;;;6.70;;
17670;SDS011;8954;48.694;8.940;2023-02-02T13:51:43;6.60;;;6.40;;
17670;SDS011;8954;48.694;8.940;2023-02-02T14:05:05;6.47;;;6.27;;
17670;SDS011;8954;48.694;8.940;2023-02-02T14:07:36;6.60;;;6.40;;
17670;SDS011;8954;48.694;8.940;2023-02-02T14:10:19;6.80;;;6.60;;
17670;SDS011;8954;48.694;8.940;2023-02-02T14:12:47;6.65;;;6.45;;
17670;SDS011;8954;48.694;8.940;2023-02-02T14:15:13;6.78;;;6.57;;
17670;SDS011;8954;48.694;8.940;2023-02-02T14:20:11;7.00;;;6.80;;
17670;SDS011;8954;48.694;8.940;2023-02-02T14:26:10;6.80;;;6.60;;
17670;SDS011;8954;48.694;8.940;2023-02-02T14:28:46;6.70;;;6.50;;
17670;SDS011;8954;48.694;8.940;2023-02-02T14:31:27;6.90;;;6.70;;
17670;SDS011;8954;48.694;8.940;2023-02-02T14:34:25;6.90;;;6.70;;
17670;SDS011;8954;48.694;8.940;2023-02-02T14:36:57;6.90;;;6.70;;
17670;SDS011;8954;48.694;8.940;2023-02-02T14:39:26;6.97;;;6.77;;
17670;SDS011;8954;48.694;8.940;2023-02-02T14:42:55;6.70;;;6.50;;
17670;SDS011;8954;48.694;8.940;2023-02-02T14:45:26;6.80;;;6.60;;
17670;SDS011;8954;48.694;8.940;2023-02-02T14:47:58;6.93;;;6.73;;
17670;SDS011;8954;48.694;8.940;2023-02-02T14:53:24;6.83;;;6.63;;
17670;SDS011;8954;48.694;8.940;2023-02-02T14:58:41;6.70;;;6.50;;
17670;SDS011;8954;48.694;8.940;2023-02-02T15:03:52;6.50;;;6.30;;
17670;SDS011;8954;48.694;8.940;2023-02-02T15:06:40;6.40;;;6.20;;
17670;SDS011;8954;48.694;8.940;2023-02-02T15:19:53;5.57;;;5.38;;
17670;SDS011;8954;48.694;8.940;2023-02-02T15:22:37;5.70;;;5.50;;
17670;SDS011;8954;48.694;8.940;2023-02-02T15:25:39;5.57;;;5.37;;
17670;SDS011;8954;48.694;8.940;2023-02-02T15:36:42;5.70;;;5.50;;
17670;SDS011;8954;48.694;8.940;2023-02-02T15:39:12;5.70;;;5.50;;
17670;SDS011;8954;48.694;8.940;2023-02-02T15:41:54;5.57;;;5.37;;
17670;SDS011;8954;48.694;8.940;2023-02-02T15:44:40;5.70;;;5.50;;
17670;SDS011;8954;48.694;8.940;2023-02-02T15:47:16;6.00;;;5.80;;
17670;SDS011;8954;48.694;8.940;2023-02-02T15:49:47;5.57;;;5.37;;
17670;SDS011;8954;48.694;8.940;2023-02-02T15:52:14;5.60;;;5.40;;
17670;SDS011;8954;48.694;8.940;2023-02-02T15:54:52;5.50;;;5.30;;
17670;SDS011;8954;48.694;8.940;2023-02-02T15:57:20;5.50;;;5.30;;
17670;SDS011;8954;48.694;8.940;2023-02-02T15:59:52;5.60;;;5.40;;
17670;SDS011;8954;48.694;8.940;2023-02-02T16:04:46;5.30;;;5.10;;
17670;SDS011;8954;48.694;8.940;2023-02-02T16:07:16;5.03;;;4.93;;
17670;SDS011;8954;48.694;8.940;2023-02-02T16:09:51;5.18;;;5.07;;
17670;SDS011;8954;48.694;8.940;2023-02-02T16:12:18;5.40;;;5.20;;
17670;SDS011;8954;48.694;8.940;2023-02-02T16:14:46;5.40;;;5.20;;
17670;SDS011;8954;48.694;8.940;2023-02-02T16:17:25;5.40;;;5.20;;
17670;SDS011;8954;48.694;8.940;2023-02-02T16:20:00;5.50;;;5.30;;
17670;SDS011;8954;48.694;8.940;2023-02-02T16:22:44;5.37;;;5.17;;
17670;SDS011;8954;48.694;8.940;2023-02-02T16:25:14;5.63;;;5.43;;
17670;SDS011;8954;48.694;8.940;2023-02-02T16:27:43;5.50;;;5.30;;
17670;SDS011;8954;48.694;8.940;2023-02-02T16:30:15;5.90;;;5.70;;
17670;SDS011;8954;48.694;8.940;2023-02-02T16:32:52;5.27;;;5.10;;
17670;SDS011;8954;48.694;8.940;2023-02-02T16:35:29;5.50;;;5.30;;
17670;SDS011;8954;48.694;8.940;2023-02-02T16:40:48;5.30;;;5.10;;
17670;SDS011;8954;48.694;8.940;2023-02-02T16:43:17;5.00;;;4.90;;
17670;SDS011;8954;48.694;8.940;2023-02-02T16:45:54;5.60;;;5.40;;
17670;SDS011;8954;48.694;8.940;2023-02-02T16:48:35;5.50;;;5.30;;
17670;SDS011;8954;48.694;8.940;2023-02-02T16:51:05;5.50;;;5.30;;
17670;SDS011;8954;48.694;8.940;2023-02-02T16:53:45;5.40;;;5.20;;
17670;SDS011;8954;48.694;8.940;2023-02-02T16:58:49;5.00;;;4.90;;
17670;SDS011;8954;48.694;8.940;2023-02-02T17:01:21;5.10;;;5.00;;
17670;SDS011;8954;48.694;8.940;2023-02-02T17:03:56;5.00;;;4.90;;
17670;SDS011;8954;48.694;8.940;2023-02-02T17:06:29;4.90;;;4.80;;
17670;SDS011;8954;48.694;8.940;2023-02-02T17:09:12;4.70;;;4.60;;
17670;SDS011;8954;48.694;8.940;2023-02-02T17:11:39;5.10;;;4.90;;
17670;SDS011;8954;48.694;8.940;2023-02-02T17:14:23;4.80;;;4.70;;
17670;SDS011;8954;48.694;8.940;2023-02-02T17:16:53;4.87;;;4.77;;
17670;SDS011;8954;48.694;8.940;2023-02-02T17:19:19;4.70;;;4.60;;
17670;SDS011;8954;48.694;8.940;2023-02-02T17:21:44;4.80;;;4.60;;
17670;SDS011;8954;48.694;8.940;2023-02-02T17:24:14;4.73;;;4.63;;
17670;SDS011;8954;48.694;8.940;2023-02-02T17:26:40;5.00;;;4.90;;
17670;SDS011;8954;48.694;8.940;2023-02-02T17:29:08;4.67;;;4.57;;
17670;SDS011;8954;48.694;8.940;2023-02-02T17:31:36;4.67;;;4.57;;
17670;SDS011;8954;48.694;8.940;2023-02-02T17:34:07;5.10;;;4.90;;
17670;SDS011;8954;48.694;8.940;2023-02-02T17:36:35;4.60;;;4.50;;
17670;SDS011;8954;48.694;8.940;2023-02-02T17:39:01;4.70;;;4.60;;
17670;SDS011;8954;48.694;8.940;2023-02-02T17:41:27;4.80;;;4.70;;
17670;SDS011;8954;48.694;8.940;2023-02-02T17:43:52;4.73;;;4.63;;
17670;SDS011;8954;48.694;8.940;2023-02-02T17:46:18;4.73;;;4.63;;
17670;SDS011;8954;48.694;8.940;2023-02-02T17:48:43;4.80;;;4.70;;
17670;SDS011;8954;48.694;8.940;2023-02-02T17:51:15;4.90;;;4.80;;